Time;durP1;ratioP1;P1;durP2;ratioP2;P2;SDS_P1;SDS_P2;PMS_P1;PMS_P2;Temp;Humidity;BMP_temperature;BMP_pressure;BME280_temperature;BME280_humidity;BME280_pressure;Samples;Min_cycle;Max_cycle;Signal;HPM_P1;HPM_P2
2021/12/22 00:00:14;;;;;;;19.83;11.18;;;1.20;99.90;;;;;;5099247;28;20044;-70
2021/12/22 00:02:46;;;;;;;18.95;11.55;;;0.00;99.90;;;;;;5082128;28;20109;-71
2021/12/22 00:05:25;;;;;;;19.33;11.88;;;0.50;99.90;;;;;;5099526;28;20047;-71
2021/12/22 00:07:51;;;;;;;18.52;10.60;;;-0.10;99.90;;;;;;5099119;28;20055;-71
2021/12/22 00:10:19;;;;;;;17.40;10.82;;;0.30;99.90;;;;;;5117389;28;20079;-71
2021/12/22 00:12:45;;;;;;;17.83;10.40;;;0.20;99.90;;;;;;5116743;28;20055;-71
2021/12/22 00:15:11;;;;;;;16.08;9.35;;;1.00;99.90;;;;;;5116713;28;20054;-71
2021/12/22 00:17:38;;;;;;;17.40;10.30;;;-0.10;99.90;;;;;;5116630;28;20046;-71
2021/12/22 00:20:06;;;;;;;18.60;10.48;;;0.30;99.90;;;;;;5098406;28;20098;-71
2021/12/22 00:22:32;;;;;;;16.05;9.15;;;-0.10;99.90;;;;;;5081150;28;20176;-71
2021/12/22 00:24:57;;;;;;;14.93;10.07;;;-0.10;99.90;;;;;;5117218;28;20104;-71
2021/12/22 00:27:23;;;;;;;17.25;10.07;;;0.00;99.90;;;;;;5098507;28;20425;-71
2021/12/22 00:29:51;;;;;;;16.38;9.80;;;0.20;99.90;;;;;;5098681;28;20043;-71
2021/12/22 00:32:17;;;;;;;15.20;9.48;;;-0.10;99.90;;;;;;5081849;28;20391;-71
2021/12/22 00:34:51;;;;;;;15.13;9.52;;;-0.30;99.90;;;;;;5098931;28;20054;-71
2021/12/22 00:37:23;;;;;;;16.05;9.45;;;-0.10;99.90;;;;;;5098519;28;20046;-71
2021/12/22 00:39:50;;;;;;;17.88;10.38;;;-0.20;99.90;;;;;;5116270;28;20046;-71
2021/12/22 00:42:16;;;;;;;18.08;10.27;;;-0.20;99.90;;;;;;5098157;28;20048;-71
2021/12/22 00:44:47;;;;;;;15.10;9.40;;;-0.30;99.90;;;;;;5116019;28;20047;-71
2021/12/22 00:47:13;;;;;;;15.90;9.18;;;-0.20;99.90;;;;;;5097938;28;20113;-71
2021/12/22 00:49:39;;;;;;;17.35;9.20;;;-0.10;99.90;;;;;;5097553;28;20479;-71
2021/12/22 00:52:05;;;;;;;15.50;8.88;;;-0.20;99.90;;;;;;5116035;28;20048;-71
2021/12/22 00:54:31;;;;;;;15.90;9.23;;;-0.20;99.90;;;;;;5097817;28;20372;-71
2021/12/22 00:57:02;;;;;;;18.70;9.77;;;0.50;99.90;;;;;;5080937;28;20053;-71
2021/12/22 00:59:28;;;;;;;19.23;9.45;;;0.00;99.90;;;;;;5116454;28;20043;-71
2021/12/22 01:01:54;;;;;;;16.80;9.52;;;0.10;99.90;;;;;;5115812;28;20134;-71
2021/12/22 01:04:20;;;;;;;14.40;9.13;;;0.30;99.90;;;;;;5115732;28;20047;-71
2021/12/22 01:06:46;;;;;;;14.82;8.82;;;-0.20;99.90;;;;;;5097819;28;20051;-70
2021/12/22 01:09:12;;;;;;;15.07;9.20;;;1.40;99.90;;;;;;5097426;28;20475;-71
2021/12/22 01:11:37;;;;;;;15.82;9.07;;;-0.30;99.90;;;;;;5115841;28;20039;-71
2021/12/22 01:14:04;;;;;;;16.50;8.73;;;0.10;99.90;;;;;;5098362;28;20070;-70
2021/12/22 01:16:30;;;;;;;15.20;9.00;;;0.10;99.90;;;;;;5097555;28;20058;-70
2021/12/22 01:18:59;;;;;;;17.08;8.57;;;0.00;99.90;;;;;;5097428;28;20131;-70
2021/12/22 01:21:38;;;;;;;13.68;8.48;;;0.00;99.90;;;;;;5115395;28;20048;-70
2021/12/22 01:24:20;;;;;;;14.20;8.93;;;-0.50;99.90;;;;;;5114843;28;20128;-70
2021/12/22 01:26:51;;;;;;;14.95;7.80;;;-0.40;99.90;;;;;;5115410;28;20052;-70
2021/12/22 01:29:17;;;;;;;14.38;7.85;;;-0.30;99.90;;;;;;5115391;28;20074;-70
2021/12/22 01:31:43;;;;;;;15.27;9.43;;;0.50;99.90;;;;;;5115218;28;20479;-70
2021/12/22 01:34:09;;;;;;;14.63;8.32;;;-0.60;99.90;;;;;;5097146;28;20051;-70
2021/12/22 01:36:36;;;;;;;15.48;8.48;;;-0.30;99.90;;;;;;5115187;28;20043;-70
2021/12/22 01:39:02;;;;;;;16.50;8.88;;;-0.70;99.90;;;;;;5097338;28;20429;-70
2021/12/22 01:41:28;;;;;;;16.10;8.73;;;-0.80;99.90;;;;;;5096759;28;20499;-70
2021/12/22 01:43:54;;;;;;;12.30;7.45;;;-0.20;99.90;;;;;;5096782;28;20081;-70
2021/12/22 01:49:16;;;;;;;12.95;7.03;;;1.30;99.90;;;;;;5114862;28;20486;-70
2021/12/22 01:51:51;;;;;;;14.25;7.63;;;0.30;99.90;;;;;;5115712;28;20417;-70
2021/12/22 01:54:19;;;;;;;13.20;7.43;;;0.20;99.90;;;;;;5097216;28;20044;-70
2021/12/22 01:56:46;;;;;;;13.27;8.02;;;0.00;99.90;;;;;;5114725;28;20070;-70
2021/12/22 01:59:13;;;;;;;13.98;8.18;;;-0.60;99.90;;;;;;5096513;28;20533;-70
2021/12/22 02:01:39;;;;;;;14.00;7.45;;;-0.30;99.90;;;;;;5114662;28;20067;-70
2021/12/22 02:04:10;;;;;;;13.77;7.22;;;-0.60;99.90;;;;;;5114567;28;20387;-70
2021/12/22 02:06:38;;;;;;;13.07;7.22;;;0.00;99.90;;;;;;5115413;28;20043;-70
2021/12/22 02:09:04;;;;;;;12.30;8.02;;;-0.60;99.90;;;;;;5114742;28;20047;-70
2021/12/22 02:11:30;;;;;;;12.02;7.13;;;-0.20;99.90;;;;;;5114495;28;20058;-70
2021/12/22 02:14:02;;;;;;;11.70;7.65;;;-0.60;99.90;;;;;;5080512;28;20043;-70
2021/12/22 02:16:32;;;;;;;12.65;6.90;;;0.50;99.90;;;;;;5097314;28;20366;-70
2021/12/22 02:19:00;;;;;;;13.50;7.40;;;-0.80;99.90;;;;;;5096969;28;20039;-70
2021/12/22 02:21:29;;;;;;;16.60;7.20;;;0.60;99.90;;;;;;5115188;28;20403;-70
2021/12/22 02:23:55;;;;;;;11.25;7.03;;;-0.80;99.90;;;;;;5113973;28;20046;-70
2021/12/22 02:26:31;;;;;;;10.93;7.32;;;-0.70;99.90;;;;;;5096392;28;20043;-69
2021/12/22 02:29:01;;;;;;;12.45;6.00;;;-0.60;99.90;;;;;;5097112;28;20464;-69
2021/12/22 02:31:27;;;;;;;11.77;6.50;;;-0.70;99.90;;;;;;5114274;28;20402;-69
2021/12/22 02:33:54;;;;;;;11.38;6.63;;;0.30;99.90;;;;;;5095980;28;20046;-69
2021/12/22 02:36:23;;;;;;;11.73;6.38;;;0.30;99.90;;;;;;5096002;28;20097;-69
2021/12/22 02:38:55;;;;;;;11.05;6.45;;;-0.60;99.90;;;;;;5095847;28;20047;-70
2021/12/22 02:41:27;;;;;;;10.50;6.20;;;0.80;99.90;;;;;;5079511;28;20055;-70
2021/12/22 02:43:55;;;;;;;9.25;6.05;;;-0.90;99.90;;;;;;5096539;28;20104;-69
2021/12/22 02:46:26;;;;;;;11.73;6.63;;;-0.30;99.90;;;;;;5113805;28;20050;-69
2021/12/22 02:48:53;;;;;;;11.18;6.72;;;-0.80;99.90;;;;;;5114339;28;20048;-69
2021/12/22 02:51:20;;;;;;;12.32;6.43;;;-0.20;99.90;;;;;;5096019;28;20051;-69
2021/12/22 02:54:01;;;;;;;9.25;6.10;;;-0.30;99.90;;;;;;5095815;28;20480;-69
2021/12/22 02:56:36;;;;;;;10.77;6.28;;;-0.30;99.90;;;;;;5113972;28;20098;-70
2021/12/22 03:04:11;;;;;;;10.65;6.93;;;-0.90;99.90;;;;;;5113791;28;19920;-70
2021/12/22 03:07:00;;;;;;;11.20;6.45;;;-1.10;99.90;;;;;;5096586;28;20114;-70
2021/12/22 03:09:28;;;;;;;12.82;6.22;;;-1.10;99.90;;;;;;5114624;28;20067;-70
2021/12/22 03:11:56;;;;;;;11.77;5.85;;;-0.60;99.90;;;;;;5113740;28;20048;-69
2021/12/22 03:14:23;;;;;;;13.10;7.35;;;-1.20;99.90;;;;;;5113770;28;20083;-70
2021/12/22 03:16:50;;;;;;;10.85;6.00;;;-1.10;99.90;;;;;;5096041;28;20048;-69
2021/12/22 03:19:21;;;;;;;10.50;5.93;;;0.30;99.90;;;;;;5095736;28;20056;-70
2021/12/22 03:21:49;;;;;;;12.07;6.75;;;-0.80;99.90;;;;;;5114594;28;20141;-69
2021/12/22 03:24:18;;;;;;;9.60;6.28;;;-0.40;99.90;;;;;;5113420;28;20139;-70
2021/12/22 03:26:44;;;;;;;13.05;6.43;;;-1.20;99.90;;;;;;5095707;28;20052;-69
2021/12/22 03:29:12;;;;;;;10.30;5.85;;;-0.50;99.90;;;;;;5095427;28;20056;-69
2021/12/22 03:31:39;;;;;;;9.43;6.72;;;-0.90;99.90;;;;;;5113609;28;20075;-69
2021/12/22 03:34:05;;;;;;;12.73;6.15;;;-1.20;99.90;;;;;;5113555;28;20042;-69
2021/12/22 03:36:31;;;;;;;12.18;6.63;;;-0.90;99.90;;;;;;5114142;28;20048;-69
2021/12/22 03:38:57;;;;;;;12.57;6.68;;;-1.30;99.90;;;;;;5113437;28;20114;-69
2021/12/22 03:41:22;;;;;;;11.02;6.38;;;-0.90;99.90;;;;;;5095731;28;20047;-69
2021/12/22 03:43:48;;;;;;;9.68;6.45;;;-1.10;99.90;;;;;;5113483;28;20051;-69
2021/12/22 03:46:14;;;;;;;10.02;6.43;;;-1.30;99.90;;;;;;5096325;28;20372;-69
2021/12/22 03:48:40;;;;;;;11.32;6.68;;;-1.40;99.90;;;;;;5113402;28;20130;-69
2021/12/22 03:51:05;;;;;;;11.02;6.72;;;-1.40;99.90;;;;;;5114240;28;20055;-69
2021/12/22 03:53:31;;;;;;;9.75;6.65;;;-1.20;99.90;;;;;;5113410;28;20130;-69
2021/12/22 03:55:57;;;;;;;10.07;6.20;;;-1.00;99.90;;;;;;5079417;28;20048;-69
2021/12/22 03:58:23;;;;;;;11.48;6.82;;;-1.20;99.90;;;;;;5116649;28;20498;-69
2021/12/22 04:00:54;;;;;;;10.77;7.32;;;-1.50;99.90;;;;;;5117006;28;20051;-69
2021/12/22 04:03:23;;;;;;;11.07;6.80;;;-1.40;99.90;;;;;;5117024;28;20176;-69
2021/12/22 04:05:49;;;;;;;10.75;6.32;;;-0.90;99.90;;;;;;5082545;28;20423;-69
2021/12/22 04:08:18;;;;;;;11.45;6.22;;;-1.40;99.90;;;;;;5117071;28;20043;-69
2021/12/22 04:10:48;;;;;;;11.25;6.60;;;-0.60;99.90;;;;;;5099430;28;20376;-69
2021/12/22 04:13:14;;;;;;;9.98;5.88;;;-1.40;99.90;;;;;;5116791;28;20047;-69
2021/12/22 04:15:41;;;;;;;11.95;7.55;;;-0.60;99.90;;;;;;5116759;28;20054;-69
2021/12/22 04:18:07;;;;;;;11.38;7.05;;;-1.40;99.90;;;;;;5098502;28;20140;-69
2021/12/22 04:20:34;;;;;;;12.52;7.13;;;-1.50;99.90;;;;;;5116642;28;20047;-69
2021/12/22 04:23:00;;;;;;;10.60;6.82;;;-1.40;99.90;;;;;;5116540;28;20552;-68
2021/12/22 04:25:27;;;;;;;10.02;6.15;;;-1.40;99.90;;;;;;5098240;28;20135;-69
2021/12/22 04:27:56;;;;;;;10.57;7.20;;;-1.30;99.90;;;;;;5099354;28;20419;-69
2021/12/22 04:30:24;;;;;;;10.48;7.13;;;-1.60;99.90;;;;;;5116443;28;20044;-69
2021/12/22 04:32:50;;;;;;;11.00;6.38;;;-1.60;99.90;;;;;;5116401;28;20044;-69
2021/12/22 04:35:17;;;;;;;20.05;7.22;;;-1.50;99.90;;;;;;5116589;28;20116;-69
2021/12/22 04:37:43;;;;;;;12.95;6.75;;;-1.60;99.90;;;;;;5082251;28;20104;-69
2021/12/22 04:40:09;;;;;;;10.02;6.93;;;-1.50;99.90;;;;;;5081337;28;20043;-69
2021/12/22 04:42:34;;;;;;;10.23;6.88;;;-1.50;99.90;;;;;;5098097;28;20079;-69
2021/12/22 04:45:04;;;;;;;12.40;7.70;;;-1.30;99.90;;;;;;5116110;28;20079;-69
2021/12/22 04:47:31;;;;;;;14.43;8.05;;;-1.60;99.90;;;;;;5116154;28;20047;-69
2021/12/22 04:49:56;;;;;;;12.18;8.30;;;-1.60;99.90;;;;;;5116634;28;20379;-69
2021/12/22 04:52:25;;;;;;;12.93;7.82;;;-1.50;99.90;;;;;;5116608;28;20047;-68
2021/12/22 04:55:11;;;;;;;13.15;7.93;;;-1.70;99.90;;;;;;5081188;28;20055;-69
2021/12/22 04:57:36;;;;;;;12.77;7.65;;;-1.40;99.90;;;;;;5115336;28;20411;-69
2021/12/22 05:00:07;;;;;;;13.65;7.70;;;-1.80;99.90;;;;;;5115849;28;20043;-69
2021/12/22 05:02:33;;;;;;;14.60;8.43;;;-2.00;99.90;;;;;;5115865;28;20044;-69
2021/12/22 05:04:59;;;;;;;13.68;8.52;;;-1.10;99.90;;;;;;5097545;28;20047;-69
2021/12/22 05:07:24;;;;;;;14.60;8.10;;;-1.90;99.90;;;;;;5116088;28;20375;-69
2021/12/22 05:09:50;;;;;;;11.43;7.55;;;-1.80;99.90;;;;;;5081501;28;20043;-68
2021/12/22 05:12:16;;;;;;;13.02;7.72;;;-1.90;99.90;;;;;;5116468;28;20460;-68
2021/12/22 05:14:44;;;;;;;13.27;8.75;;;-2.00;99.90;;;;;;5115560;28;20044;-68
2021/12/22 05:17:18;;;;;;;15.63;8.25;;;-0.80;99.90;;;;;;5098080;28;20086;-68
2021/12/22 05:19:44;;;;;;;;;;;-2.00;99.90;;;;;;5115974;28;20051;-69
2021/12/22 05:22:10;;;;;;;12.80;7.55;;;-2.10;99.90;;;;;;5115712;28;19920;-68
2021/12/22 05:24:35;;;;;;;12.95;7.40;;;-2.00;99.90;;;;;;5097289;28;20505;-69
2021/12/22 05:27:01;;;;;;;12.23;7.45;;;-2.00;99.90;;;;;;5080543;28;20052;-68
2021/12/22 05:29:27;;;;;;;13.05;7.68;;;-1.90;99.90;;;;;;5097224;28;20078;-68
2021/12/22 05:31:55;;;;;;;12.82;7.40;;;-2.10;99.90;;;;;;5115279;28;20118;-68
2021/12/22 05:34:21;;;;;;;13.20;7.63;;;-1.70;99.90;;;;;;5080172;28;20055;-68
2021/12/22 05:36:46;;;;;;;14.10;8.27;;;-2.10;99.90;;;;;;5080307;28;20444;-68
2021/12/22 05:39:12;;;;;;;11.68;6.90;;;-1.80;99.90;;;;;;5115584;28;20046;-68
2021/12/22 05:41:38;;;;;;;12.35;7.30;;;-1.20;99.90;;;;;;5115015;28;20074;-68
2021/12/22 05:44:04;;;;;;;12.27;6.95;;;-2.20;99.90;;;;;;5115459;28;20070;-68
2021/12/22 05:46:29;;;;;;;10.90;7.38;;;-2.10;99.90;;;;;;5080109;28;20083;-68
2021/12/22 05:48:55;;;;;;;9.70;6.85;;;-2.20;99.90;;;;;;5114891;28;20047;-69
2021/12/22 05:51:22;;;;;;;10.90;6.88;;;-2.20;99.90;;;;;;5097765;28;20118;-68
2021/12/22 05:53:48;;;;;;;13.30;8.07;;;-2.10;99.90;;;;;;5097273;28;20048;-68
2021/12/22 05:56:14;;;;;;;12.82;7.53;;;-2.20;99.90;;;;;;5115623;28;20047;-68
2021/12/22 05:58:40;;;;;;;11.10;7.00;;;-2.10;99.90;;;;;;5114734;28;20493;-69
2021/12/22 06:01:06;;;;;;;14.77;7.55;;;-2.20;99.90;;;;;;5096387;28;20105;-68
2021/12/22 06:03:32;;;;;;;10.80;7.25;;;-2.10;99.90;;;;;;5114931;28;20050;-68
2021/12/22 06:05:57;;;;;;;10.73;7.47;;;-2.10;99.90;;;;;;5114503;28;20422;-68
2021/12/22 06:08:23;;;;;;;11.63;7.18;;;-2.10;99.90;;;;;;5096414;28;20078;-68
2021/12/22 06:10:49;;;;;;;11.32;7.47;;;-0.80;99.90;;;;;;5114511;28;20126;-69
2021/12/22 06:13:15;;;;;;;11.15;7.60;;;-2.10;99.90;;;;;;5114491;28;20047;-68
2021/12/22 06:15:41;;;;;;;10.77;7.93;;;-2.20;99.90;;;;;;5096307;28;20031;-68
2021/12/22 06:18:07;;;;;;;12.20;7.13;;;-1.00;99.90;;;;;;5096802;28;20118;-68
2021/12/22 06:20:34;;;;;;;12.70;7.78;;;-2.30;99.90;;;;;;5114711;28;20069;-68
2021/12/22 06:23:00;;;;;;;13.30;7.70;;;-2.00;99.90;;;;;;5096099;28;20403;-68
2021/12/22 06:25:27;;;;;;;14.50;9.05;;;-2.10;99.90;;;;;;5114204;28;20127;-68
2021/12/22 06:27:53;;;;;;;14.23;8.57;;;-2.10;99.90;;;;;;5096851;28;20059;-68
2021/12/22 06:30:20;;;;;;;13.32;7.65;;;-2.10;99.90;;;;;;5115095;28;20047;-68
2021/12/22 06:32:47;;;;;;;15.10;8.25;;;-2.30;99.90;;;;;;5096632;28;20062;-68
2021/12/22 06:35:13;;;;;;;13.90;7.95;;;-2.10;99.90;;;;;;5114651;28;20051;-69
2021/12/22 06:37:38;;;;;;;12.20;7.95;;;-0.90;99.90;;;;;;5062112;28;20051;-68
2021/12/22 06:40:05;;;;;;;12.30;7.93;;;-2.20;99.90;;;;;;5095913;28;20079;-68
2021/12/22 06:42:31;;;;;;;12.70;8.20;;;-2.20;99.90;;;;;;5096203;28;20223;-68
2021/12/22 06:44:58;;;;;;;16.15;8.30;;;-1.20;99.90;;;;;;5113961;28;20497;-68
2021/12/22 06:47:24;;;;;;;12.90;7.68;;;-2.20;99.90;;;;;;5114685;28;20066;-68
2021/12/22 06:49:51;;;;;;;12.25;7.97;;;-2.20;99.90;;;;;;5063345;28;20036;-68
2021/12/22 06:52:16;;;;;;;14.23;8.18;;;-2.00;99.90;;;;;;5114028;28;20505;-68
2021/12/22 06:54:42;;;;;;;13.85;7.80;;;-1.10;99.90;;;;;;5113977;28;20128;-69
2021/12/22 06:57:08;;;;;;;15.43;9.43;;;-2.10;99.90;;;;;;5113945;28;20047;-68
2021/12/22 06:59:34;;;;;;;12.40;7.55;;;-2.20;99.90;;;;;;5096441;28;20055;-69
2021/12/22 07:01:59;;;;;;;16.13;9.93;;;-2.10;99.90;;;;;;5113543;28;20043;-68
2021/12/22 07:04:26;;;;;;;14.73;8.43;;;-1.50;99.90;;;;;;5095687;28;20062;-68
2021/12/22 07:06:51;;;;;;;13.77;8.02;;;-2.40;99.90;;;;;;5095792;28;20066;-69
2021/12/22 07:09:17;;;;;;;13.27;7.93;;;-2.10;99.90;;;;;;5113739;28;20047;-69
2021/12/22 07:11:43;;;;;;;12.32;7.57;;;-2.20;99.90;;;;;;5114583;28;20044;-68
2021/12/22 07:14:10;;;;;;;13.52;8.18;;;-0.50;99.90;;;;;;5113752;28;20039;-69
2021/12/22 07:16:38;;;;;;;12.20;7.68;;;-2.20;99.90;;;;;;5078971;28;20047;-68
2021/12/22 07:19:03;;;;;;;15.73;8.68;;;-1.40;99.90;;;;;;5095830;28;20075;-68
2021/12/22 07:21:29;;;;;;;17.98;9.60;;;-2.10;99.90;;;;;;5114527;28;20471;-69
2021/12/22 07:23:55;;;;;;;14.88;8.43;;;-2.10;99.90;;;;;;5095568;28;20157;-69
2021/12/22 07:26:20;;;;;;;15.77;8.85;;;-2.20;99.90;;;;;;5095611;28;20039;-69
2021/12/22 07:28:47;;;;;;;15.80;9.20;;;-2.00;99.90;;;;;;5113648;28;20055;-68
2021/12/22 07:31:15;;;;;;;14.80;8.50;;;-1.70;99.90;;;;;;5095266;28;20479;-69
2021/12/22 07:33:59;;;;;;;15.50;8.77;;;-1.70;99.90;;;;;;5117219;28;20047;-69
2021/12/22 07:36:25;;;;;;;12.95;7.70;;;-2.00;99.90;;;;;;5100367;28;20051;-69
2021/12/22 07:38:59;;;;;;;11.68;7.65;;;-2.10;99.90;;;;;;5098796;28;20402;-68
2021/12/22 07:41:26;;;;;;;14.52;8.23;;;-2.20;99.90;;;;;;5117405;28;20058;-69
2021/12/22 07:43:51;;;;;;;13.88;7.97;;;-2.20;99.90;;;;;;5098969;28;20120;-69
2021/12/22 07:46:17;;;;;;;12.85;8.27;;;-2.20;99.90;;;;;;5082282;28;20087;-69
2021/12/22 07:48:43;;;;;;;14.93;8.18;;;-1.80;99.90;;;;;;5100094;28;20050;-69
2021/12/22 07:51:09;;;;;;;13.05;7.80;;;-2.20;99.90;;;;;;5098888;28;20556;-69
2021/12/22 07:53:35;;;;;;;14.38;8.35;;;-2.10;99.90;;;;;;5082009;28;20059;-69
2021/12/22 07:56:00;;;;;;;16.25;8.40;;;-2.20;99.90;;;;;;5099904;28;20082;-69
2021/12/22 07:58:27;;;;;;;15.00;8.77;;;-2.10;99.90;;;;;;5117324;28;20056;-69
2021/12/22 08:00:54;;;;;;;17.02;9.30;;;-2.20;99.90;;;;;;5117563;28;20383;-69
2021/12/22 08:03:19;;;;;;;13.85;8.18;;;-2.00;99.90;;;;;;5117110;28;20097;-69
2021/12/22 08:05:45;;;;;;;12.52;8.43;;;-2.30;99.90;;;;;;5116969;28;20043;-69
2021/12/22 08:08:11;;;;;;;11.70;7.97;;;-2.40;99.90;;;;;;5116937;28;20134;-69
2021/12/22 08:10:39;;;;;;;16.02;8.73;;;-1.80;99.90;;;;;;5098573;28;20052;-69
2021/12/22 08:13:05;;;;;;;13.98;8.65;;;-2.10;99.90;;;;;;5116895;28;20044;-69
2021/12/22 08:15:31;;;;;;;14.45;8.55;;;-1.50;99.90;;;;;;5116866;28;20040;-69
2021/12/22 08:17:56;;;;;;;15.35;8.95;;;-2.00;99.90;;;;;;5117200;28;20055;-69
2021/12/22 08:20:23;;;;;;;11.35;8.10;;;-0.50;99.90;;;;;;5098747;28;20054;-70
2021/12/22 08:22:49;;;;;;;12.32;7.82;;;-2.00;99.90;;;;;;5116260;28;20419;-70
2021/12/22 08:25:15;;;;;;;14.68;9.07;;;-1.10;99.90;;;;;;5116135;28;20555;-71
2021/12/22 08:27:41;;;;;;;15.68;8.07;;;-0.80;99.90;;;;;;5116458;28;20181;-70
2021/12/22 08:30:08;;;;;;;13.90;7.70;;;-1.00;99.90;;;;;;5116656;28;20373;-70
2021/12/22 08:32:34;;;;;;;16.10;8.50;;;-1.10;99.90;;;;;;5116330;28;20052;-69
2021/12/22 08:35:02;;;;;;;17.90;9.35;;;-0.50;99.90;;;;;;5099068;28;20039;-69
2021/12/22 08:40:14;;;;;;;15.30;8.70;;;-2.00;99.90;;;;;;5116985;28;20043;-69
2021/12/22 08:42:42;;;;;;;18.08;9.38;;;-0.70;99.90;;;;;;5115932;28;20044;-69
2021/12/22 08:45:08;;;;;;;15.88;8.00;;;-1.30;99.90;;;;;;5116568;28;20112;-69
2021/12/22 08:47:34;;;;;;;17.10;9.68;;;-1.90;99.90;;;;;;5116872;28;20053;-72
2021/12/22 08:49:59;;;;;;;16.92;9.05;;;-1.90;99.90;;;;;;5116260;28;20104;-71
2021/12/22 08:52:25;;;;;;;13.18;7.90;;;-1.60;99.90;;;;;;5098057;28;20047;-71
2021/12/22 08:54:51;;;;;;;13.18;8.32;;;-1.80;99.90;;;;;;5097673;28;20039;-71
2021/12/22 08:57:17;;;;;;;16.30;8.98;;;-1.70;99.90;;;;;;5116835;28;20052;-71
2021/12/22 08:59:43;;;;;;;15.15;9.15;;;-1.70;99.90;;;;;;5098082;28;20499;-71
2021/12/22 09:02:09;;;;;;;17.50;9.68;;;-1.70;99.90;;;;;;5115908;28;20083;-72
2021/12/22 09:04:34;;;;;;;14.68;8.55;;;-1.60;99.90;;;;;;5115823;28;20036;-72
2021/12/22 09:07:01;;;;;;;16.10;9.38;;;-1.70;99.90;;;;;;5097898;28;20550;-71
2021/12/22 09:09:26;;;;;;;17.40;8.70;;;-1.50;99.90;;;;;;5115713;28;20407;-71
2021/12/22 09:11:52;;;;;;;16.77;9.68;;;-0.50;99.90;;;;;;5116414;28;20052;-71
2021/12/22 09:14:20;;;;;;;19.30;9.57;;;0.00;99.90;;;;;;5115678;28;20053;-71
2021/12/22 09:16:46;;;;;;;16.90;8.73;;;-1.30;99.90;;;;;;5115677;28;20048;-72
2021/12/22 09:19:11;;;;;;;17.33;9.48;;;-1.50;99.90;;;;;;5115598;28;20055;-70
2021/12/22 09:21:38;;;;;;;16.20;9.55;;;-1.60;99.90;;;;;;5115472;28;20044;-70
2021/12/22 09:24:04;;;;;;;16.45;8.90;;;-1.30;99.90;;;;;;5115436;28;20091;-70
2021/12/22 09:26:30;;;;;;;16.40;8.50;;;-1.30;99.90;;;;;;5115942;28;20055;-69
2021/12/22 09:28:57;;;;;;;14.77;9.13;;;-0.30;99.90;;;;;;5115506;28;20039;-69
2021/12/22 09:31:23;;;;;;;15.20;9.20;;;-1.00;99.90;;;;;;5115357;28;20048;-70
2021/12/22 09:33:49;;;;;;;15.63;8.02;;;0.30;99.90;;;;;;5115643;28;20126;-70
2021/12/22 09:36:16;;;;;;;18.05;9.65;;;-1.10;99.90;;;;;;5097930;28;20054;-70
2021/12/22 09:38:42;;;;;;;18.45;10.55;;;-1.30;99.90;;;;;;5097420;28;20135;-70
2021/12/22 09:41:09;;;;;;;16.70;8.82;;;-1.10;99.90;;;;;;5115894;28;20043;-69
2021/12/22 09:43:35;;;;;;;16.08;8.88;;;-1.10;99.90;;;;;;5115131;28;20047;-70
2021/12/22 09:46:06;;;;;;;14.23;9.05;;;-1.20;99.90;;;;;;5115062;28;20039;-70
2021/12/22 09:53:27;;;;;;;17.83;9.10;;;-1.10;99.90;;;;;;5115043;28;20101;-70
2021/12/22 09:55:55;;;;;;;16.30;8.82;;;-1.00;99.90;;;;;;5096273;28;20058;-68
2021/12/22 09:58:22;;;;;;;17.80;9.18;;;-0.80;99.90;;;;;;5114863;28;20050;-68
2021/12/22 10:00:49;;;;;;;13.95;9.10;;;-1.30;99.90;;;;;;5114707;28;20054;-69
2021/12/22 10:03:16;;;;;;;21.25;9.43;;;-0.20;99.90;;;;;;5114678;28;20043;-68
2021/12/22 10:05:43;;;;;;;17.85;9.70;;;-1.00;99.90;;;;;;5114682;28;20043;-68
2021/12/22 10:08:26;;;;;;;17.15;9.05;;;-0.60;99.90;;;;;;5096714;28;20410;-69
2021/12/22 10:11:05;;;;;;;18.45;9.27;;;-1.00;99.90;;;;;;5114734;28;20125;-68
2021/12/22 10:13:32;;;;;;;17.25;8.38;;;-1.00;99.90;;;;;;5114935;28;20400;-68
2021/12/22 10:15:59;;;;;;;16.15;9.15;;;-0.80;99.90;;;;;;5115178;28;20045;-69
2021/12/22 10:18:27;;;;;;;16.90;9.02;;;-1.00;99.90;;;;;;5114533;28;20104;-69
2021/12/22 10:21:10;;;;;;;16.58;8.75;;;-0.90;99.90;;;;;;5096749;28;20044;-69
2021/12/22 10:23:37;;;;;;;17.33;9.05;;;-0.80;99.90;;;;;;5113854;28;20511;-68
2021/12/22 10:26:04;;;;;;;15.23;8.98;;;-0.50;99.90;;;;;;5096962;28;20049;-68
2021/12/22 10:28:52;;;;;;;16.85;9.02;;;-0.80;99.90;;;;;;5113685;28;20054;-68
2021/12/22 10:31:21;;;;;;;14.73;8.77;;;-0.80;99.90;;;;;;5112074;28;20060;-70
2021/12/22 10:33:47;;;;;;;14.80;8.65;;;-0.70;99.90;;;;;;5111973;28;20113;-69
2021/12/22 10:36:16;;;;;;;14.35;8.68;;;-0.10;99.90;;;;;;5093181;28;20051;-68
2021/12/22 10:38:50;;;;;;;16.00;8.80;;;0.10;99.90;;;;;;5110715;28;20113;-69
2021/12/22 10:41:16;;;;;;;15.32;9.25;;;-0.20;99.90;;;;;;5111517;28;20051;-70
2021/12/22 10:43:45;;;;;;;15.30;8.73;;;-0.60;99.90;;;;;;5113609;28;20063;-69
2021/12/22 10:46:15;;;;;;;16.75;8.38;;;-0.50;99.90;;;;;;5114407;28;20105;-69
2021/12/22 10:51:27;;;;;;;15.27;8.13;;;-0.50;99.90;;;;;;5114733;28;20108;-70
2021/12/22 10:53:53;;;;;;;13.40;7.88;;;0.20;99.90;;;;;;5095872;28;20055;-70
2021/12/22 10:56:34;;;;;;;15.75;9.13;;;0.80;99.90;;;;;;5096023;28;20051;-70
2021/12/22 10:59:16;;;;;;;15.15;9.18;;;0.20;99.90;;;;;;5114022;28;20046;-70
2021/12/22 11:01:56;;;;;;;17.17;9.30;;;-0.30;99.90;;;;;;5096334;28;20111;-70
2021/12/22 11:04:27;;;;;;;16.45;9.10;;;-0.10;99.90;;;;;;5114004;28;20130;-70
2021/12/22 11:06:55;;;;;;;20.70;8.65;;;-0.20;99.90;;;;;;5099258;28;20112;-71
2021/12/22 11:09:22;;;;;;;14.82;8.73;;;0.50;99.90;;;;;;5099938;28;20114;-70
2021/12/22 11:11:51;;;;;;;19.23;9.52;;;-0.30;99.90;;;;;;5118125;28;20057;-70
2021/12/22 11:14:16;;;;;;;15.73;9.68;;;1.00;99.90;;;;;;5118650;28;20048;-70
2021/12/22 11:17:15;;;;;;;15.73;8.02;;;0.00;99.90;;;;;;5118026;28;20391;-70
2021/12/22 11:19:44;;;;;;;14.20;8.13;;;0.10;99.90;;;;;;5118220;28;20482;-70
2021/12/22 11:22:13;;;;;;;12.88;8.23;;;0.10;99.90;;;;;;5118072;28;20109;-70
2021/12/22 11:24:48;;;;;;;14.80;8.10;;;0.30;99.90;;;;;;5100750;28;20044;-70
2021/12/22 11:27:24;;;;;;;13.93;7.50;;;0.00;99.90;;;;;;5118431;28;20055;-70
2021/12/22 11:29:55;;;;;;;13.07;7.63;;;0.00;99.90;;;;;;5117856;28;20050;-70
2021/12/22 11:32:24;;;;;;;11.20;7.47;;;0.10;99.90;;;;;;5118086;28;20044;-70
2021/12/22 11:34:58;;;;;;;13.45;7.50;;;0.50;99.90;;;;;;5117769;28;20126;-70
2021/12/22 11:37:26;;;;;;;11.13;7.28;;;0.20;99.90;;;;;;5118230;28;20066;-70
2021/12/22 11:39:52;;;;;;;14.02;7.75;;;0.60;99.90;;;;;;5117145;28;20055;-70
2021/12/22 11:42:22;;;;;;;15.07;7.32;;;1.00;99.90;;;;;;5099397;28;20044;-70
2021/12/22 11:44:52;;;;;;;13.95;8.15;;;1.00;99.90;;;;;;5117439;28;20073;-70
2021/12/22 11:47:19;;;;;;;16.15;9.05;;;0.30;99.90;;;;;;5099378;28;20058;-70
2021/12/22 11:49:58;;;;;;;13.45;7.47;;;0.70;99.90;;;;;;5117474;28;20098;-69
2021/12/22 11:52:38;;;;;;;13.63;7.45;;;0.40;99.90;;;;;;5117735;28;20051;-70
2021/12/22 11:55:10;;;;;;;13.90;7.63;;;0.60;99.90;;;;;;5117498;28;20376;-69
2021/12/22 11:57:36;;;;;;;15.32;7.53;;;0.40;99.90;;;;;;5098453;28;20043;-69
2021/12/22 12:00:33;;;;;;;17.23;8.40;;;1.30;99.90;;;;;;5099452;28;20066;-69
2021/12/22 12:03:19;;;;;;;13.13;7.47;;;0.50;99.90;;;;;;5118115;28;20075;-70
2021/12/22 12:06:03;;;;;;;14.00;7.80;;;2.30;99.90;;;;;;5117190;28;20093;-70
2021/12/22 12:08:42;;;;;;;17.40;8.13;;;0.80;99.90;;;;;;5117925;28;20043;-70
2021/12/22 12:11:10;;;;;;;13.18;7.63;;;0.50;99.90;;;;;;5117850;28;20140;-70
2021/12/22 12:22:32;;;;;;;13.50;8.13;;;0.70;99.90;;;;;;5116604;28;20491;-69
2021/12/22 12:25:01;;;;;;;13.55;7.20;;;0.60;99.90;;;;;;5098652;28;20044;-69
2021/12/22 12:27:32;;;;;;;13.32;7.55;;;1.10;99.90;;;;;;5117573;28;20118;-69
2021/12/22 12:30:11;;;;;;;14.13;7.63;;;1.00;99.90;;;;;;5098490;28;20083;-69
2021/12/22 12:32:40;;;;;;;13.55;7.68;;;0.70;99.90;;;;;;5116729;28;20054;-69
2021/12/22 12:35:17;;;;;;;13.25;7.47;;;1.20;99.90;;;;;;5116237;28;20047;-69
2021/12/22 12:38:17;;;;;;;12.82;7.40;;;1.80;99.90;;;;;;5116623;28;20051;-68
2021/12/22 12:40:55;;;;;;;13.57;7.05;;;0.60;99.90;;;;;;5099475;28;20047;-68
2021/12/22 12:46:24;;;;;;;14.15;7.32;;;0.80;99.90;;;;;;5087414;28;20077;-68
2021/12/22 12:49:05;;;;;;;16.58;7.97;;;1.00;99.90;;;;;;5098291;28;20090;-69
2021/12/22 12:51:33;;;;;;;11.65;7.25;;;2.10;99.90;;;;;;5116170;28;20048;-69
2021/12/22 12:54:06;;;;;;;11.10;6.88;;;0.70;99.90;;;;;;5115849;28;20509;-68
2021/12/22 12:56:33;;;;;;;11.60;7.28;;;0.70;99.90;;;;;;5098306;28;20055;-69
2021/12/22 12:59:02;;;;;;;14.02;6.60;;;1.10;99.90;;;;;;5116114;28;20047;-69
2021/12/22 13:01:52;;;;;;;12.70;7.05;;;0.80;99.90;;;;;;5098425;28;20051;-68
2021/12/22 13:04:23;;;;;;;12.93;6.78;;;0.70;99.90;;;;;;5098526;28;20471;-69
2021/12/22 13:07:02;;;;;;;15.93;7.07;;;0.80;99.90;;;;;;5116491;28;20185;-67
2021/12/22 13:09:42;;;;;;;11.73;6.05;;;2.00;99.90;;;;;;5115862;28;20126;-68
2021/12/22 13:12:34;;;;;;;15.23;7.03;;;0.90;99.90;;;;;;5116446;28;20048;-67
2021/12/22 13:17:59;;;;;;;17.58;6.97;;;0.90;99.90;;;;;;5115754;28;20091;-67
2021/12/22 13:20:28;;;;;;;12.73;6.78;;;0.90;99.90;;;;;;5115886;28;20096;-68